Time;durP1;ratioP1;P1;durP2;ratioP2;P2;SDS_P1;SDS_P2;PMS_P1;PMS_P2;Temp;Humidity;BMP_temperature;BMP_pressure;BME280_temperature;BME280_humidity;BME280_pressure;Samples;Min_cycle;Max_cycle;Signal;HPM_P1;HPM_P2
2022/11/13 00:02:03;;;;;;;13.48;8.02;;;;;;;;;;4861358;29;20068;-60
2022/11/13 00:04:48;;;;;;;13.88;8.10;;;;;;;;;;4860964;29;20060;-63
2022/11/13 00:07:32;;;;;;;10.00;7.22;;;;;;;;;;4861821;29;20117;-61
2022/11/13 00:10:17;;;;;;;11.82;7.78;;;;;;;;;;4861766;29;20197;-60
2022/11/13 00:13:02;;;;;;;16.52;8.43;;;;;;;;;;4861204;29;20535;-60
2022/11/13 00:15:55;;;;;;;14.48;8.85;;;;;;;;;;4861935;29;20137;-61
2022/11/13 00:18:40;;;;;;;15.45;8.20;;;;;;;;;;4861627;29;20446;-60
2022/11/13 00:21:28;;;;;;;11.38;7.90;;;;;;;;;;4861636;29;20419;-61
2022/11/13 00:24:13;;;;;;;13.20;7.65;;;;;;;;;;4861721;29;20518;-60
2022/11/13 00:26:57;;;;;;;14.05;8.20;;;;;;;;;;4861929;29;20140;-60
2022/11/13 00:29:42;;;;;;;11.90;7.90;;;;;;;;;;4861424;29;20061;-60
2022/11/13 00:32:27;;;;;;;11.68;7.68;;;;;;;;;;4861179;29;20526;-60
2022/11/13 00:35:12;;;;;;;14.00;8.70;;;;;;;;;;4861368;29;20136;-60
2022/11/13 00:37:57;;;;;;;11.85;8.05;;;;;;;;;;4861752;29;20411;-59
2022/11/13 00:40:42;;;;;;;15.88;8.93;;;;;;;;;;4861916;29;20406;-62
2022/11/13 00:43:27;;;;;;;12.95;8.23;;;;;;;;;;4860724;29;20061;-61
2022/11/13 00:46:12;;;;;;;13.55;8.18;;;;;;;;;;4860616;29;20605;-62
2022/11/13 00:48:57;;;;;;;25.25;7.32;;;;;;;;;;4861001;29;20525;-62
2022/11/13 00:51:41;;;;;;;22.63;8.13;;;;;;;;;;4861339;29;20048;-61
2022/11/13 00:54:26;;;;;;;15.07;7.55;;;;;;;;;;4861439;29;20546;-61
2022/11/13 00:57:11;;;;;;;14.30;7.00;;;;;;;;;;4861174;29;20059;-61
2022/11/13 00:59:56;;;;;;;13.18;7.50;;;;;;;;;;4860085;29;20530;-61
2022/11/13 01:02:41;;;;;;;17.38;8.00;;;;;;;;;;4859393;29;20159;-62
2022/11/13 01:05:26;;;;;;;18.30;8.85;;;;;;;;;;4861008;29;20514;-61
2022/11/13 01:08:12;;;;;;;15.27;8.57;;;;;;;;;;4860517;29;20064;-61
2022/11/13 01:10:57;;;;;;;10.85;7.15;;;;;;;;;;4861099;29;20472;-61
2022/11/13 01:13:42;;;;;;;20.05;8.38;;;;;;;;;;4860195;29;20053;-61
2022/11/13 01:16:28;;;;;;;23.27;8.75;;;;;;;;;;4860523;29;20533;-61
2022/11/13 01:19:12;;;;;;;33.33;8.77;;;;;;;;;;4859373;29;20069;-62
2022/11/13 01:21:57;;;;;;;12.10;7.47;;;;;;;;;;4860062;29;20539;-61
2022/11/13 01:24:42;;;;;;;13.68;7.90;;;;;;;;;;4860669;29;20064;-61
2022/11/13 01:27:27;;;;;;;21.30;9.50;;;;;;;;;;4860532;29;20061;-61
2022/11/13 01:30:12;;;;;;;15.13;9.50;;;;;;;;;;4860228;29;20105;-62
2022/11/13 01:32:57;;;;;;;18.35;8.35;;;;;;;;;;4860018;29;20061;-60
2022/11/13 01:35:41;;;;;;;26.10;9.63;;;;;;;;;;4860293;29;20052;-60
2022/11/13 01:38:26;;;;;;;15.27;7.90;;;;;;;;;;4859479;29;20055;-61
2022/11/13 01:41:14;;;;;;;12.25;7.85;;;;;;;;;;4860284;29;20056;-60
2022/11/13 01:44:11;;;;;;;15.35;7.97;;;;;;;;;;4860065;29;20141;-59
2022/11/13 01:46:56;;;;;;;24.73;9.50;;;;;;;;;;4859352;29;20463;-60
2022/11/13 01:49:42;;;;;;;14.50;9.00;;;;;;;;;;4859915;29;20508;-60
2022/11/13 01:52:30;;;;;;;14.88;8.93;;;;;;;;;;4859568;29;20056;-60
2022/11/13 01:55:16;;;;;;;14.35;9.18;;;;;;;;;;4860312;29;20064;-60
2022/11/13 01:58:02;;;;;;;16.95;9.35;;;;;;;;;;4860221;29;20086;-59
2022/11/13 02:00:47;;;;;;;17.02;9.18;;;;;;;;;;4859123;29;20072;-60
2022/11/13 02:03:31;;;;;;;21.50;9.60;;;;;;;;;;4858389;29;20057;-59
2022/11/13 02:06:17;;;;;;;20.80;9.48;;;;;;;;;;4859913;29;20435;-59
2022/11/13 02:09:02;;;;;;;17.25;8.95;;;;;;;;;;4859717;29;20060;-60
2022/11/13 02:11:47;;;;;;;16.63;9.18;;;;;;;;;;4859565;29;20528;-61
2022/11/13 02:14:33;;;;;;;15.20;9.70;;;;;;;;;;4860025;29;20064;-61
2022/11/13 02:17:21;;;;;;;14.85;8.40;;;;;;;;;;4860134;29;20080;-61
2022/11/13 02:20:07;;;;;;;13.10;8.23;;;;;;;;;;4861065;29;20060;-61
2022/11/13 02:22:55;;;;;;;14.63;8.52;;;;;;;;;;4863295;29;20407;-61
2022/11/13 02:25:41;;;;;;;18.30;8.23;;;;;;;;;;4863897;29;20108;-61
2022/11/13 02:28:26;;;;;;;14.95;7.03;;;;;;;;;;4864625;29;20063;-61
2022/11/13 02:31:12;;;;;;;12.38;7.13;;;;;;;;;;4864076;29;20422;-60
2022/11/13 02:33:57;;;;;;;14.30;8.32;;;;;;;;;;4863016;29;20541;-60
2022/11/13 02:36:42;;;;;;;12.25;7.20;;;;;;;;;;4863900;29;20076;-61
2022/11/13 02:39:27;;;;;;;13.75;8.18;;;;;;;;;;4863952;29;20161;-60
2022/11/13 02:42:12;;;;;;;13.07;7.47;;;;;;;;;;4862611;29;20072;-60
2022/11/13 02:44:58;;;;;;;12.60;8.10;;;;;;;;;;4862646;29;20056;-61
2022/11/13 02:47:43;;;;;;;13.55;8.18;;;;;;;;;;4862610;29;20052;-61
2022/11/13 02:50:27;;;;;;;17.98;9.32;;;;;;;;;;4862281;29;20056;-60
2022/11/13 02:53:12;;;;;;;16.50;9.50;;;;;;;;;;4862962;29;20515;-60
2022/11/13 02:55:57;;;;;;;13.57;8.23;;;;;;;;;;4863076;29;20153;-61
2022/11/13 02:58:42;;;;;;;13.93;8.90;;;;;;;;;;4863508;29;20138;-61
2022/11/13 03:01:27;;;;;;;15.32;8.82;;;;;;;;;;4863562;29;20052;-61
2022/11/13 03:04:12;;;;;;;13.00;7.78;;;;;;;;;;4863666;29;20144;-61
2022/11/13 03:06:57;;;;;;;14.93;7.13;;;;;;;;;;4862220;29;20414;-61
2022/11/13 03:09:41;;;;;;;8.73;6.72;;;;;;;;;;4862890;29;20060;-61
2022/11/13 03:12:26;;;;;;;11.48;6.80;;;;;;;;;;4861576;29;20064;-60
2022/11/13 03:15:11;;;;;;;7.63;5.50;;;;;;;;;;4862479;29;20097;-61
2022/11/13 03:17:56;;;;;;;10.48;6.75;;;;;;;;;;4862909;29;20060;-61
2022/11/13 03:20:42;;;;;;;9.50;5.60;;;;;;;;;;4862965;29;20067;-60
2022/11/13 03:23:26;;;;;;;10.45;6.05;;;;;;;;;;4862450;29;20061;-61
2022/11/13 03:26:12;;;;;;;12.30;6.18;;;;;;;;;;4863052;29;20065;-60
2022/11/13 03:28:57;;;;;;;9.10;6.00;;;;;;;;;;4862657;29;20060;-60
2022/11/13 03:31:42;;;;;;;8.38;5.78;;;;;;;;;;4861715;29;20056;-60
2022/11/13 03:34:27;;;;;;;12.52;6.90;;;;;;;;;;4862627;29;20053;-60
2022/11/13 03:37:12;;;;;;;12.50;6.43;;;;;;;;;;4861890;29;20159;-60
2022/11/13 03:39:57;;;;;;;10.63;6.57;;;;;;;;;;4862829;29;20140;-60
2022/11/13 03:42:41;;;;;;;9.20;6.65;;;;;;;;;;4861645;29;20069;-60
2022/11/13 03:45:26;;;;;;;10.02;7.20;;;;;;;;;;4861574;29;20080;-60
2022/11/13 03:48:11;;;;;;;10.02;6.45;;;;;;;;;;4862367;29;20069;-61
2022/11/13 03:50:56;;;;;;;8.20;6.10;;;;;;;;;;4861905;29;20105;-60
2022/11/13 03:53:41;;;;;;;9.60;6.38;;;;;;;;;;4861883;29;20182;-60
2022/11/13 03:56:26;;;;;;;11.95;7.03;;;;;;;;;;4861276;29;20055;-61
2022/11/13 03:59:11;;;;;;;14.63;8.07;;;;;;;;;;4862144;29;20141;-61
2022/11/13 04:01:55;;;;;;;14.65;8.18;;;;;;;;;;4861550;29;20553;-61
2022/11/13 04:04:41;;;;;;;12.55;8.07;;;;;;;;;;4861961;29;20165;-61
2022/11/13 04:07:26;;;;;;;11.00;7.47;;;;;;;;;;4862269;29;20064;-61
2022/11/13 04:10:10;;;;;;;12.07;8.20;;;;;;;;;;4861761;29;20166;-61
2022/11/13 04:12:55;;;;;;;13.95;9.30;;;;;;;;;;4861451;29;20059;-62
2022/11/13 04:15:40;;;;;;;13.95;8.48;;;;;;;;;;4860766;29;20125;-61
2022/11/13 04:18:25;;;;;;;13.82;8.35;;;;;;;;;;4861867;29;20218;-61
2022/11/13 04:21:10;;;;;;;14.63;9.40;;;;;;;;;;4861754;29;20149;-61
2022/11/13 04:23:55;;;;;;;15.20;8.48;;;;;;;;;;4861027;29;20053;-60
2022/11/13 04:26:40;;;;;;;21.38;9.85;;;;;;;;;;4861628;29;20064;-61
2022/11/13 04:29:25;;;;;;;21.50;10.43;;;;;;;;;;4861598;29;20114;-60
2022/11/13 04:32:09;;;;;;;20.10;10.32;;;;;;;;;;4861024;29;20094;-61
2022/11/13 04:34:54;;;;;;;32.83;11.73;;;;;;;;;;4861362;29;20526;-61
2022/11/13 04:37:39;;;;;;;24.00;10.55;;;;;;;;;;4861571;29;20117;-63
2022/11/13 04:40:24;;;;;;;23.95;10.93;;;;;;;;;;4861464;29;20612;-60
2022/11/13 04:43:09;;;;;;;17.80;9.88;;;;;;;;;;4859719;29;20076;-60
2022/11/13 04:45:54;;;;;;;20.00;9.70;;;;;;;;;;4861359;29;20060;-61
2022/11/13 04:48:38;;;;;;;14.30;9.43;;;;;;;;;;4861414;29;20063;-61
2022/11/13 04:51:23;;;;;;;16.13;8.55;;;;;;;;;;4860832;29;20078;-60
2022/11/13 04:54:08;;;;;;;13.63;8.90;;;;;;;;;;4861037;29;20125;-61
2022/11/13 04:56:52;;;;;;;13.18;8.07;;;;;;;;;;4861140;29;20061;-59
2022/11/13 04:59:37;;;;;;;12.25;7.93;;;;;;;;;;4861104;29;20121;-60
2022/11/13 05:02:22;;;;;;;13.27;7.32;;;;;;;;;;5295670;23;20082;-59
2022/11/13 05:05:07;;;;;;;11.50;8.27;;;;;;;;;;4916225;29;20412;-61
2022/11/13 05:07:52;;;;;;;16.95;8.68;;;;;;;;;;4917280;29;20062;-59
2022/11/13 05:10:37;;;;;;;13.85;9.10;;;;;;;;;;4917125;29;20055;-62
2022/11/13 05:13:22;;;;;;;17.33;8.55;;;;;;;;;;4898850;29;20640;-61
2022/11/13 05:16:08;;;;;;;13.88;7.25;;;;;;;;;;4897985;29;20076;-61
2022/11/13 05:18:53;;;;;;;11.23;8.07;;;;;;;;;;4897727;29;20056;-60
2022/11/13 05:21:38;;;;;;;13.75;7.75;;;;;;;;;;4897542;29;20062;-60
2022/11/13 05:24:23;;;;;;;22.63;8.32;;;;;;;;;;4897860;29;20104;-60
2022/11/13 05:27:08;;;;;;;23.90;7.68;;;;;;;;;;4897697;29;20189;-60
2022/11/13 05:30:00;;;;;;;11.48;7.55;;;;;;;;;;4896688;29;20057;-60
2022/11/13 05:32:45;;;;;;;10.05;7.20;;;;;;;;;;4897063;29;20532;-60
2022/11/13 05:35:30;;;;;;;10.00;7.13;;;;;;;;;;4897786;29;20417;-61
2022/11/13 05:38:15;;;;;;;14.65;7.85;;;;;;;;;;4897802;29;20097;-60
2022/11/13 05:41:04;;;;;;;13.52;7.68;;;;;;;;;;4897607;29;20056;-60
2022/11/13 05:43:50;;;;;;;11.27;7.45;;;;;;;;;;4897136;29;20071;-60
2022/11/13 05:46:42;;;;;;;18.00;7.57;;;;;;;;;;4897887;29;20059;-60
2022/11/13 05:49:27;;;;;;;12.13;7.75;;;;;;;;;;4897545;29;20070;-60
2022/11/13 05:52:12;;;;;;;10.95;7.45;;;;;;;;;;4897131;29;20122;-60
2022/11/13 05:54:57;;;;;;;15.20;8.27;;;;;;;;;;4896616;29;20051;-60
2022/11/13 05:57:42;;;;;;;14.20;8.68;;;;;;;;;;4897428;29;20414;-60
2022/11/13 06:00:26;;;;;;;13.88;8.93;;;;;;;;;;4897386;29;20062;-60
2022/11/13 06:03:11;;;;;;;23.38;11.82;;;;;;;;;;4896845;29;20111;-62
2022/11/13 06:05:56;;;;;;;18.75;9.20;;;;;;;;;;4909708;29;20079;-60
2022/11/13 06:08:41;;;;;;;38.30;8.73;;;;;;;;;;4897306;29;20064;-60
2022/11/13 06:11:27;;;;;;;23.50;9.25;;;;;;;;;;4896825;29;20196;-62
2022/11/13 06:14:12;;;;;;;20.60;8.48;;;;;;;;;;4909300;29;20055;-61
2022/11/13 06:16:57;;;;;;;17.98;8.77;;;;;;;;;;4897193;29;20055;-61
2022/11/13 06:19:43;;;;;;;16.73;7.85;;;;;;;;;;4897121;29;20051;-61
2022/11/13 06:22:28;;;;;;;14.25;7.97;;;;;;;;;;4896344;29;20424;-61
2022/11/13 06:25:13;;;;;;;15.55;7.72;;;;;;;;;;4897483;29;20425;-61
2022/11/13 06:27:58;;;;;;;17.23;8.18;;;;;;;;;;4897149;29;20055;-61
2022/11/13 06:30:42;;;;;;;19.88;7.70;;;;;;;;;;4896831;29;20192;-61
2022/11/13 06:33:27;;;;;;;22.65;7.72;;;;;;;;;;4896717;29;20060;-61
2022/11/13 06:36:13;;;;;;;16.38;7.88;;;;;;;;;;4896781;29;20059;-60
2022/11/13 06:38:58;;;;;;;17.45;7.35;;;;;;;;;;4897064;29;20067;-62
2022/11/13 06:41:43;;;;;;;20.92;7.95;;;;;;;;;;4896246;29;20132;-60
2022/11/13 06:44:28;;;;;;;18.52;8.27;;;;;;;;;;4896998;29;20108;-60
2022/11/13 06:47:12;;;;;;;24.92;9.20;;;;;;;;;;4897116;29;20063;-60
2022/11/13 06:49:57;;;;;;;31.75;9.32;;;;;;;;;;4896995;29;20088;-60
2022/11/13 06:52:42;;;;;;;53.25;11.82;;;;;;;;;;4896497;29;20471;-60
2022/11/13 06:55:26;;;;;;;23.65;9.98;;;;;;;;;;4896925;29;20139;-60
2022/11/13 06:58:12;;;;;;;62.35;10.95;;;;;;;;;;4896817;29;20409;-59
2022/11/13 07:00:56;;;;;;;19.23;9.45;;;;;;;;;;4896990;29;20552;-60
2022/11/13 07:03:42;;;;;;;13.38;7.45;;;;;;;;;;4896125;29;20059;-61
2022/11/13 07:06:27;;;;;;;15.75;7.07;;;;;;;;;;4898164;29;20413;-60
2022/11/13 07:09:12;;;;;;;12.40;6.95;;;;;;;;;;4900478;29;20193;-60
2022/11/13 07:11:57;;;;;;;16.92;7.07;;;;;;;;;;4899657;29;20059;-60
2022/11/13 07:14:41;;;;;;;18.35;7.25;;;;;;;;;;4900265;29;20059;-60
2022/11/13 07:17:29;;;;;;;12.95;6.65;;;;;;;;;;4900294;29;20063;-60
2022/11/13 07:20:14;;;;;;;21.17;7.40;;;;;;;;;;4900194;29;20417;-61
2022/11/13 07:23:00;;;;;;;18.95;7.65;;;;;;;;;;4899625;29;20064;-60
2022/11/13 07:25:46;;;;;;;17.52;7.35;;;;;;;;;;4900169;29;20620;-60
2022/11/13 07:28:30;;;;;;;27.65;7.45;;;;;;;;;;4899999;29;20143;-59
2022/11/13 07:31:16;;;;;;;18.25;8.20;;;;;;;;;;4899664;29;20059;-60
2022/11/13 07:34:01;;;;;;;28.17;8.40;;;;;;;;;;4900013;29;20055;-60
2022/11/13 07:36:46;;;;;;;23.27;9.10;;;;;;;;;;4900028;29;20565;-60
2022/11/13 07:39:31;;;;;;;21.23;8.38;;;;;;;;;;4899771;29;20560;-61
2022/11/13 07:42:16;;;;;;;23.13;7.97;;;;;;;;;;4899226;29;20060;-60
2022/11/13 07:45:01;;;;;;;16.50;8.45;;;;;;;;;;4900026;29;20067;-61
2022/11/13 07:47:46;;;;;;;17.67;8.20;;;;;;;;;;4899956;29;20469;-60
2022/11/13 07:50:32;;;;;;;22.60;9.35;;;;;;;;;;4900159;29;20523;-61
2022/11/13 07:53:18;;;;;;;22.20;8.65;;;;;;;;;;4899130;29;20059;-60
2022/11/13 07:56:03;;;;;;;30.58;9.35;;;;;;;;;;4899773;29;20055;-60
2022/11/13 07:58:50;;;;;;;16.13;9.50;;;;;;;;;;4899645;29;20100;-60
2022/11/13 08:01:35;;;;;;;27.45;8.63;;;;;;;;;;4899579;29;20054;-60
2022/11/13 08:04:20;;;;;;;25.10;9.82;;;;;;;;;;4898610;29;20071;-61
2022/11/13 08:07:05;;;;;;;18.58;8.80;;;;;;;;;;4900071;29;20063;-61
2022/11/13 08:09:50;;;;;;;24.02;9.40;;;;;;;;;;4899609;29;20144;-61
2022/11/13 08:12:34;;;;;;;16.95;8.77;;;;;;;;;;4899509;29;20513;-60
2022/11/13 08:15:19;;;;;;;18.25;8.80;;;;;;;;;;4899508;29;20060;-60
2022/11/13 08:18:04;;;;;;;25.20;8.70;;;;;;;;;;4896984;29;20560;-62
2022/11/13 08:20:49;;;;;;;52.10;29.00;;;;;;;;;;4899215;29;20059;-61
2022/11/13 08:23:34;;;;;;;17.80;9.55;;;;;;;;;;4898172;29;20055;-61
2022/11/13 08:26:19;;;;;;;22.90;8.82;;;;;;;;;;4899267;29;20076;-60
2022/11/13 08:29:04;;;;;;;17.90;8.82;;;;;;;;;;4898873;29;20386;-60
2022/11/13 08:31:49;;;;;;;23.77;9.63;;;;;;;;;;4898095;29;20055;-61
2022/11/13 08:34:33;;;;;;;17.40;7.88;;;;;;;;;;4898934;29;20199;-63
2022/11/13 08:37:18;;;;;;;20.23;9.02;;;;;;;;;;4898998;29;20139;-61
2022/11/13 08:40:03;;;;;;;17.73;9.20;;;;;;;;;;4898827;29;20067;-61
2022/11/13 08:42:49;;;;;;;14.52;8.32;;;;;;;;;;4897851;29;20059;-61
2022/11/13 08:45:34;;;;;;;15.95;8.45;;;;;;;;;;4898820;29;20131;-61
2022/11/13 08:48:20;;;;;;;15.73;8.30;;;;;;;;;;4897390;29;20072;-62
2022/11/13 08:51:05;;;;;;;21.08;10.35;;;;;;;;;;4898767;29;20183;-61
2022/11/13 08:53:50;;;;;;;15.20;8.95;;;;;;;;;;4898000;29;20452;-61
2022/11/13 08:56:35;;;;;;;14.93;9.68;;;;;;;;;;4898583;29;20059;-61
2022/11/13 08:59:22;;;;;;;17.52;9.07;;;;;;;;;;4897545;29;20275;-62
2022/11/13 09:02:08;;;;;;;15.90;9.35;;;;;;;;;;4898097;29;20531;-61
2022/11/13 09:04:53;;;;;;;18.70;9.88;;;;;;;;;;4898186;29;20052;-62
2022/11/13 09:07:38;;;;;;;14.95;9.50;;;;;;;;;;4897565;29;20437;-61
2022/11/13 09:10:23;;;;;;;16.15;10.15;;;;;;;;;;4897298;29;20075;-61
2022/11/13 09:13:10;;;;;;;17.25;10.63;;;;;;;;;;4897706;29;20425;-60
2022/11/13 09:15:56;;;;;;;19.20;11.00;;;;;;;;;;4898122;29;20060;-61
2022/11/13 09:18:41;;;;;;;18.75;12.45;;;;;;;;;;4898415;29;20059;-61
2022/11/13 09:21:26;;;;;;;20.15;10.88;;;;;;;;;;4897864;29;20104;-61
2022/11/13 09:24:11;;;;;;;19.10;13.43;;;;;;;;;;4897989;29;20059;-62
2022/11/13 09:26:56;;;;;;;18.25;12.85;;;;;;;;;;4898070;29;20524;-60
2022/11/13 09:29:41;;;;;;;23.20;13.82;;;;;;;;;;4897690;29;20108;-60
2022/11/13 09:32:26;;;;;;;23.00;13.35;;;;;;;;;;4897159;29;20072;-60
2022/11/13 09:35:11;;;;;;;25.65;15.13;;;;;;;;;;4898256;29;20074;-62
2022/11/13 09:37:56;;;;;;;24.80;16.20;;;;;;;;;;4898210;29;20132;-60
2022/11/13 09:40:53;;;;;;;23.35;14.40;;;;;;;;;;4897682;29;20059;-60
2022/11/13 09:43:41;;;;;;;56.17;34.63;;;;;;;;;;4897211;29;20059;-60
2022/11/13 09:46:32;;;;;;;45.92;33.15;;;;;;;;;;4897609;29;20513;-61
2022/11/13 09:49:20;;;;;;;20.70;14.45;;;;;;;;;;4897717;29;20051;-61
2022/11/13 09:52:09;;;;;;;22.50;14.27;;;;;;;;;;4896970;29;20060;-61
2022/11/13 09:54:54;;;;;;;41.17;23.73;;;;;;;;;;4897625;29;20104;-60
2022/11/13 09:57:45;;;;;;;22.92;15.75;;;;;;;;;;4896800;29;20218;-61
2022/11/13 10:00:32;;;;;;;21.00;14.55;;;;;;;;;;4897743;29;20111;-61
2022/11/13 10:03:17;;;;;;;17.13;12.25;;;;;;;;;;4897009;29;20052;-61
2022/11/13 10:06:42;;;;;;;19.50;13.95;;;;;;;;;;4897870;29;20065;-61
2022/11/13 10:09:35;;;;;;;19.02;13.02;;;;;;;;;;4897560;29;20051;-61
2022/11/13 10:12:19;;;;;;;16.23;11.98;;;;;;;;;;4896780;29;20532;-61
2022/11/13 10:15:05;;;;;;;14.27;11.65;;;;;;;;;;4897676;29;20593;-63
2022/11/13 10:17:52;;;;;;;17.15;13.25;;;;;;;;;;4897565;29;20124;-62
2022/11/13 10:20:47;;;;;;;14.68;11.63;;;;;;;;;;4897511;29;20055;-62
2022/11/13 10:23:34;;;;;;;14.38;11.45;;;;;;;;;;4896563;29;20349;-60
2022/11/13 10:26:20;;;;;;;14.57;10.73;;;;;;;;;;4897236;29;20520;-61
2022/11/13 10:29:09;;;;;;;17.30;11.82;;;;;;;;;;4897216;29;20104;-61
2022/11/13 10:31:55;;;;;;;16.80;10.85;;;;;;;;;;4896444;29;20123;-61
2022/11/13 10:34:42;;;;;;;15.18;9.88;;;;;;;;;;4897082;29;20055;-60
2022/11/13 10:37:30;;;;;;;13.10;9.60;;;;;;;;;;4897580;29;20060;-61
2022/11/13 10:40:29;;;;;;;10.55;8.65;;;;;;;;;;4897299;29;20153;-61
2022/11/13 10:43:16;;;;;;;10.77;8.82;;;;;;;;;;4900662;29;20456;-61
2022/11/13 10:46:03;;;;;;;10.82;8.88;;;;;;;;;;4900822;29;20539;-61
2022/11/13 10:48:48;;;;;;;11.45;8.43;;;;;;;;;;4900886;29;20062;-61
2022/11/13 10:51:34;;;;;;;7.30;6.55;;;;;;;;;;4900437;29;20586;-61
2022/11/13 10:54:19;;;;;;;9.27;7.70;;;;;;;;;;4900654;29;20469;-62
2022/11/13 10:57:05;;;;;;;9.13;6.63;;;;;;;;;;4900657;29;20063;-61
2022/11/13 10:59:50;;;;;;;9.18;7.22;;;;;;;;;;4900627;29;20059;-61
2022/11/13 11:02:34;;;;;;;10.07;6.90;;;;;;;;;;4899949;29;20055;-61
2022/11/13 11:05:21;;;;;;;10.45;6.97;;;;;;;;;;4899296;29;20426;-60
2022/11/13 11:08:09;;;;;;;6.93;5.97;;;;;;;;;;4900484;29;20059;-61
2022/11/13 11:14:36;;;;;;;7.15;5.75;;;;;;;;;;4900375;29;20097;-61
2022/11/13 11:17:41;;;;;;;9.82;6.60;;;;;;;;;;4900716;29;20056;-61
2022/11/13 11:20:43;;;;;;;7.38;5.65;;;;;;;;;;4897294;29;20296;-61
2022/11/13 11:23:31;;;;;;;7.18;6.00;;;;;;;;;;4899925;29;20418;-62
2022/11/13 11:26:29;;;;;;;5.88;5.22;;;;;;;;;;4900447;29;20118;-61
2022/11/13 11:29:17;;;;;;;5.55;4.43;;;;;;;;;;4900228;29;20100;-61
2022/11/13 11:32:10;;;;;;;5.18;3.90;;;;;;;;;;4899817;29;20079;-61
2022/11/13 11:35:03;;;;;;;8.80;4.28;;;;;;;;;;4900154;29;20055;-62
2022/11/13 11:37:52;;;;;;;4.45;3.92;;;;;;;;;;4899953;29;20116;-62
2022/11/13 11:40:40;;;;;;;5.03;3.65;;;;;;;;;;4899008;29;20533;-61
2022/11/13 11:43:45;;;;;;;4.13;3.13;;;;;;;;;;4899069;29;20059;-61
2022/11/13 11:46:30;;;;;;;;;;;;;;;;;;4899391;29;20055;-61
2022/11/13 11:49:14;;;;;;;4.10;3.53;;;;;;;;;;4899869;29;19995;-61
2022/11/13 11:52:18;;;;;;;4.90;3.10;;;;;;;;;;4898866;29;20056;-61
2022/11/13 11:55:11;;;;;;;4.28;3.10;;;;;;;;;;4912373;29;20063;-62
2022/11/13 11:57:59;;;;;;;54.13;30.17;;;;;;;;;;4899601;29;20055;-61
2022/11/13 12:00:48;;;;;;;4.72;3.55;;;;;;;;;;4899516;29;20067;-60
2022/11/13 12:03:33;;;;;;;4.00;2.88;;;;;;;;;;4898787;29;20641;-61
2022/11/13 12:06:21;;;;;;;3.05;2.40;;;;;;;;;;4899554;29;20055;-61
2022/11/13 12:09:06;;;;;;;3.50;2.80;;;;;;;;;;4899579;29;20062;-61
2022/11/13 12:11:57;;;;;;;4.65;2.53;;;;;;;;;;4898506;29;20185;-61
2022/11/13 12:14:48;;;;;;;2.72;2.45;;;;;;;;;;4899286;29;20429;-62
2022/11/13 12:17:39;;;;;;;2.50;2.17;;;;;;;;;;4899014;29;20063;-62
2022/11/13 12:20:37;;;;;;;2.63;2.22;;;;;;;;;;4899310;29;20097;-61
2022/11/13 12:23:22;;;;;;;2.92;2.50;;;;;;;;;;4898859;29;20589;-61
2022/11/13 12:26:25;;;;;;;2.85;2.33;;;;;;;;;;4899694;29;20055;-61
2022/11/13 12:29:18;;;;;;;2.60;2.40;;;;;;;;;;4899489;29;20055;-62
2022/11/13 12:32:22;;;;;;;2.85;2.00;;;;;;;;;;4898610;29;20055;-61
2022/11/13 12:35:18;;;;;;;3.60;2.50;;;;;;;;;;4911702;29;20071;-62
2022/11/13 12:38:06;;;;;;;2.67;2.00;;;;;;;;;;4898823;29;20059;-62
2022/11/13 12:40:53;;;;;;;2.45;2.22;;;;;;;;;;4898677;29;20056;-61
2022/11/13 12:43:58;;;;;;;2.22;2.03;;;;;;;;;;4898146;29;20532;-61
2022/11/13 12:46:44;;;;;;;2.20;2.00;;;;;;;;;;4898560;29;20127;-62
2022/11/13 12:49:31;;;;;;;2.17;1.98;;;;;;;;;;4898715;29;20127;-62
2022/11/13 12:52:19;;;;;;;1.92;1.70;;;;;;;;;;4897845;29;20059;-62
2022/11/13 12:55:23;;;;;;;2.30;1.83;;;;;;;;;;4898276;29;20100;-62
2022/11/13 12:58:19;;;;;;;2.25;2.05;;;;;;;;;;4897169;29;20059;-61
2022/11/13 13:01:10;;;;;;;2.33;1.85;;;;;;;;;;4898538;29;20338;-61
2022/11/13 13:04:03;;;;;;;4.85;2.40;;;;;;;;;;4897293;29;20136;-61
2022/11/13 13:06:48;;;;;;;2.97;2.67;;;;;;;;;;4898321;29;20533;-61
2022/11/13 13:09:53;;;;;;;2.78;2.20;;;;;;;;;;4897234;29;20517;-61
2022/11/13 13:13:01;;;;;;;2.60;2.22;;;;;;;;;;4896548;29;20047;-61
2022/11/13 13:15:54;;;;;;;3.72;2.15;;;;;;;;;;4897956;29;20104;-61
2022/11/13 13:18:39;;;;;;;2.60;2.20;;;;;;;;;;4910086;29;20051;-61
2022/11/13 13:21:24;;;;;;;2.38;2.17;;;;;;;;;;4896740;29;20146;-62
2022/11/13 13:24:25;;;;;;;3.40;2.53;;;;;;;;;;4898030;29;20047;-62
2022/11/13 13:27:31;;;;;;;3.08;2.28;;;;;;;;;;4898141;29;20119;-62
2022/11/13 13:30:21;;;;;;;3.15;2.85;;;;;;;;;;4898480;29;20151;-62
2022/11/13 13:33:18;;;;;;;3.03;2.72;;;;;;;;;;4897552;29;20143;-62
2022/11/13 13:36:22;;;;;;;2.85;2.55;;;;;;;;;;4898283;29;20732;-62
2022/11/13 13:39:12;;;;;;;4.53;2.95;;;;;;;;;;4910511;29;20059;-62
2022/11/13 13:42:03;;;;;;;4.00;2.70;;;;;;;;;;4897167;29;20059;-62
2022/11/13 13:44:48;;;;;;;4.18;3.10;;;;;;;;;;4897613;29;20063;-62
2022/11/13 13:47:38;;;;;;;5.43;3.90;;;;;;;;;;4897617;29;20141;-62
2022/11/13 13:50:24;;;;;;;4.70;3.22;;;;;;;;;;4897621;29;20071;-62
2022/11/13 13:53:11;;;;;;;3.88;3.50;;;;;;;;;;4897100;29;20100;-62
2022/11/13 13:55:57;;;;;;;4.20;3.65;;;;;;;;;;4897467;29;20051;-62
2022/11/13 13:58:42;;;;;;;4.18;3.78;;;;;;;;;;4897319;29;20524;-62
2022/11/13 14:01:28;;;;;;;5.57;3.78;;;;;;;;;;4897369;29;20059;-62
2022/11/13 14:04:17;;;;;;;5.07;4.18;;;;;;;;;;4897330;29;20074;-62
2022/11/13 14:07:02;;;;;;;5.72;4.10;;;;;;;;;;4897368;29;20474;-62
2022/11/13 14:09:47;;;;;;;4.20;3.80;;;;;;;;;;4896528;29;20059;-62
2022/11/13 14:12:32;;;;;;;5.88;4.65;;;;;;;;;;4896847;29;20100;-61
2022/11/13 14:15:20;;;;;;;4.90;4.38;;;;;;;;;;4896651;29;20105;-62
2022/11/13 14:18:11;;;;;;;5.57;4.72;;;;;;;;;;4897248;29;20569;-61
2022/11/13 14:21:09;;;;;;;6.38;5.10;;;;;;;;;;4897408;29;20051;-62
2022/11/13 14:23:54;;;;;;;5.38;4.80;;;;;;;;;;4896664;29;20067;-62
2022/11/13 14:26:39;;;;;;;6.55;5.10;;;;;;;;;;4896119;29;20520;-61
2022/11/13 14:29:35;;;;;;;10.75;7.18;;;;;;;;;;4897088;29;20059;-62
2022/11/13 14:32:21;;;;;;;22.58;14.40;;;;;;;;;;4896363;29;20052;-62
2022/11/13 14:35:08;;;;;;;7.15;4.80;;;;;;;;;;4897150;29;20056;-62
2022/11/13 14:37:53;;;;;;;6.00;4.57;;;;;;;;;;4897324;29;20059;-62
2022/11/13 14:40:38;;;;;;;5.50;4.50;;;;;;;;;;4897147;29;20139;-62
2022/11/13 14:43:26;;;;;;;6.72;4.65;;;;;;;;;;4896535;29;20059;-62
2022/11/13 14:46:24;;;;;;;5.68;4.45;;;;;;;;;;4897074;29;20074;-61
2022/11/13 14:49:29;;;;;;;5.78;4.97;;;;;;;;;;4897048;29;20218;-62
2022/11/13 14:52:24;;;;;;;6.30;4.53;;;;;;;;;;4896177;29;20056;-61
2022/11/13 14:55:20;;;;;;;5.70;4.20;;;;;;;;;;4897001;29;20055;-60
2022/11/13 14:58:05;;;;;;;40.10;24.13;;;;;;;;;;4897098;29;20104;-61
2022/11/13 15:00:50;;;;;;;6.25;5.10;;;;;;;;;;4897001;29;20060;-60
2022/11/13 15:03:34;;;;;;;4.63;4.15;;;;;;;;;;4896518;29;20083;-62
2022/11/13 15:06:25;;;;;;;5.50;4.55;;;;;;;;;;4896227;29;20067;-62
2022/11/13 15:09:11;;;;;;;5.03;4.20;;;;;;;;;;4896909;29;20063;-61
2022/11/13 15:11:56;;;;;;;4.43;3.95;;;;;;;;;;4896135;29;20059;-61
2022/11/13 15:14:41;;;;;;;6.18;4.78;;;;;;;;;;4897112;29;20057;-61
2022/11/13 15:17:26;;;;;;;10.57;7.97;;;;;;;;;;4896173;29;20051;-61
2022/11/13 15:20:15;;;;;;;12.65;7.57;;;;;;;;;;4896809;29;20096;-61
2022/11/13 15:23:00;;;;;;;7.32;5.53;;;;;;;;;;4908490;29;20080;-61
2022/11/13 15:25:45;;;;;;;5.60;4.95;;;;;;;;;;4897226;29;20504;-61
2022/11/13 15:28:30;;;;;;;7.13;4.85;;;;;;;;;;4899574;29;20063;-61
2022/11/13 15:31:19;;;;;;;6.68;5.22;;;;;;;;;;4900164;29;20532;-61
2022/11/13 15:34:04;;;;;;;7.35;5.40;;;;;;;;;;4912309;29;20059;-62
2022/11/13 15:36:49;;;;;;;6.75;5.22;;;;;;;;;;4900578;29;20055;-62
2022/11/13 15:39:34;;;;;;;5.80;4.72;;;;;;;;;;4900029;29;20064;-62
2022/11/13 15:42:21;;;;;;;6.07;5.20;;;;;;;;;;4899409;29;20078;-62
2022/11/13 15:45:05;;;;;;;6.72;5.57;;;;;;;;;;4899877;29;20153;-62
2022/11/13 15:47:50;;;;;;;7.88;5.75;;;;;;;;;;4912235;29;20139;-62
2022/11/13 15:50:35;;;;;;;7.25;5.65;;;;;;;;;;4899691;29;20063;-62
2022/11/13 15:53:20;;;;;;;8.25;5.53;;;;;;;;;;4898781;29;20073;-62
2022/11/13 15:56:05;;;;;;;8.07;5.60;;;;;;;;;;4899704;29;20466;-61
2022/11/13 15:58:50;;;;;;;7.93;4.85;;;;;;;;;;4898794;29;20055;-62
2022/11/13 16:01:35;;;;;;;6.40;5.68;;;;;;;;;;4899204;29;20536;-61
2022/11/13 16:04:20;;;;;;;8.35;6.20;;;;;;;;;;4898538;29;20064;-61
2022/11/13 16:07:12;;;;;;;7.47;5.97;;;;;;;;;;4899405;29;20058;-62
2022/11/13 16:09:57;;;;;;;9.15;5.75;;;;;;;;;;4899357;29;20063;-61
2022/11/13 16:12:44;;;;;;;7.13;5.93;;;;;;;;;;4898330;29;20552;-61
2022/11/13 16:15:29;;;;;;;8.18;6.28;;;;;;;;;;4899395;29;20055;-62
2022/11/13 16:18:20;;;;;;;24.05;13.90;;;;;;;;;;4899002;29;20188;-61
2022/11/13 16:21:05;;;;;;;12.60;9.48;;;;;;;;;;4899210;29;20128;-62
2022/11/13 16:23:50;;;;;;;8.57;6.78;;;;;;;;;;4898819;29;20095;-61
2022/11/13 16:26:35;;;;;;;8.32;6.88;;;;;;;;;;4898853;29;20520;-62
2022/11/13 16:29:21;;;;;;;9.38;7.30;;;;;;;;;;4899250;29;20100;-62
2022/11/13 16:32:11;;;;;;;10.00;7.38;;;;;;;;;;4910951;29;20062;-61
2022/11/13 16:34:56;;;;;;;12.77;8.15;;;;;;;;;;4899012;29;20051;-61